sensor_id;sensor_type;location;lat;lon;timestamp;P1;durP1;ratioP1;P2;durP2;ratioP2
34643;SDS011;26931;43.498;-1.506;2023-06-14T00:01:47;8.50;;;6.00;;
34643;SDS011;26931;43.498;-1.506;2023-06-14T00:04:16;12.65;;;5.93;;
34643;SDS011;26931;43.498;-1.506;2023-06-14T00:06:42;12.13;;;6.53;;
34643;SDS011;26931;43.498;-1.506;2023-06-14T00:09:14;14.07;;;6.65;;
34643;SDS011;26931;43.498;-1.506;2023-06-14T00:11:42;14.02;;;6.72;;
34643;SDS011;26931;43.498;-1.506;2023-06-14T00:14:09;10.10;;;5.95;;
34643;SDS011;26931;43.498;-1.506;2023-06-14T00:16:35;12.43;;;5.90;;
34643;SDS011;26931;43.498;-1.506;2023-06-14T00:19:03;9.77;;;5.85;;
34643;SDS011;26931;43.498;-1.506;2023-06-14T00:21:30;10.68;;;5.70;;
34643;SDS011;26931;43.498;-1.506;2023-06-14T00:23:59;12.23;;;6.03;;
34643;SDS011;26931;43.498;-1.506;2023-06-14T00:26:25;9.07;;;5.80;;
34643;SDS011;26931;43.498;-1.506;2023-06-14T00:28:51;11.13;;;5.95;;
34643;SDS011;26931;43.498;-1.506;2023-06-14T00:31:18;12.98;;;6.25;;
34643;SDS011;26931;43.498;-1.506;2023-06-14T00:33:45;12.38;;;5.95;;
34643;SDS011;26931;43.498;-1.506;2023-06-14T00:36:10;9.13;;;5.30;;
34643;SDS011;26931;43.498;-1.506;2023-06-14T00:38:37;10.48;;;6.40;;
34643;SDS011;26931;43.498;-1.506;2023-06-14T00:41:03;8.20;;;5.60;;
34643;SDS011;26931;43.498;-1.506;2023-06-14T00:43:29;12.70;;;5.72;;
34643;SDS011;26931;43.498;-1.506;2023-06-14T00:45:55;12.45;;;5.75;;
34643;SDS011;26931;43.498;-1.506;2023-06-14T00:48:21;12.57;;;6.05;;
34643;SDS011;26931;43.498;-1.506;2023-06-14T00:50:49;12.57;;;6.20;;
34643;SDS011;26931;43.498;-1.506;2023-06-14T00:53:16;10.35;;;6.90;;
34643;SDS011;26931;43.498;-1.506;2023-06-14T00:55:43;14.32;;;7.53;;
34643;SDS011;26931;43.498;-1.506;2023-06-14T00:58:09;16.77;;;7.72;;
34643;SDS011;26931;43.498;-1.506;2023-06-14T01:00:36;13.45;;;7.68;;
34643;SDS011;26931;43.498;-1.506;2023-06-14T01:03:02;12.82;;;6.97;;
34643;SDS011;26931;43.498;-1.506;2023-06-14T01:05:29;15.48;;;8.13;;
34643;SDS011;26931;43.498;-1.506;2023-06-14T01:15:45;16.33;;;8.50;;
34643;SDS011;26931;43.498;-1.506;2023-06-14T01:18:12;14.13;;;7.63;;
34643;SDS011;26931;43.498;-1.506;2023-06-14T01:20:43;18.70;;;8.02;;
34643;SDS011;26931;43.498;-1.506;2023-06-14T01:23:14;12.38;;;7.40;;
34643;SDS011;26931;43.498;-1.506;2023-06-14T01:25:44;17.10;;;7.60;;
34643;SDS011;26931;43.498;-1.506;2023-06-14T01:28:12;16.55;;;7.95;;
34643;SDS011;26931;43.498;-1.506;2023-06-14T01:30:42;18.65;;;8.32;;
34643;SDS011;26931;43.498;-1.506;2023-06-14T01:33:12;19.58;;;8.35;;
34643;SDS011;26931;43.498;-1.506;2023-06-14T01:35:41;13.20;;;7.53;;
34643;SDS011;26931;43.498;-1.506;2023-06-14T01:38:12;19.92;;;8.27;;
34643;SDS011;26931;43.498;-1.506;2023-06-14T01:40:40;13.98;;;7.35;;
34643;SDS011;26931;43.498;-1.506;2023-06-14T01:43:08;16.00;;;7.65;;
34643;SDS011;26931;43.498;-1.506;2023-06-14T01:45:38;14.57;;;8.23;;
34643;SDS011;26931;43.498;-1.506;2023-06-14T01:48:10;18.23;;;8.10;;
34643;SDS011;26931;43.498;-1.506;2023-06-14T01:50:37;18.05;;;8.65;;
34643;SDS011;26931;43.498;-1.506;2023-06-14T01:53:05;20.65;;;8.57;;
34643;SDS011;26931;43.498;-1.506;2023-06-14T01:55:35;19.38;;;8.07;;
34643;SDS011;26931;43.498;-1.506;2023-06-14T01:58:02;17.40;;;7.60;;
34643;SDS011;26931;43.498;-1.506;2023-06-14T02:00:29;20.55;;;7.97;;
34643;SDS011;26931;43.498;-1.506;2023-06-14T02:02:55;21.70;;;7.70;;
34643;SDS011;26931;43.498;-1.506;2023-06-14T02:05:22;18.35;;;7.90;;
34643;SDS011;26931;43.498;-1.506;2023-06-14T02:07:48;15.77;;;7.78;;
34643;SDS011;26931;43.498;-1.506;2023-06-14T02:10:15;20.55;;;8.02;;
34643;SDS011;26931;43.498;-1.506;2023-06-14T02:12:43;14.40;;;7.65;;
34643;SDS011;26931;43.498;-1.506;2023-06-14T02:15:09;20.17;;;7.65;;
34643;SDS011;26931;43.498;-1.506;2023-06-14T02:17:42;15.30;;;7.43;;
34643;SDS011;26931;43.498;-1.506;2023-06-14T02:20:08;21.55;;;7.93;;
34643;SDS011;26931;43.498;-1.506;2023-06-14T02:22:35;17.23;;;8.07;;
34643;SDS011;26931;43.498;-1.506;2023-06-14T02:25:01;19.75;;;7.93;;
34643;SDS011;26931;43.498;-1.506;2023-06-14T02:27:27;21.25;;;8.68;;
34643;SDS011;26931;43.498;-1.506;2023-06-14T02:29:53;17.17;;;7.70;;
34643;SDS011;26931;43.498;-1.506;2023-06-14T02:32:19;17.30;;;7.70;;
34643;SDS011;26931;43.498;-1.506;2023-06-14T02:34:45;20.23;;;8.52;;
34643;SDS011;26931;43.498;-1.506;2023-06-14T02:37:15;15.20;;;8.00;;
34643;SDS011;26931;43.498;-1.506;2023-06-14T02:39:41;20.08;;;8.68;;
34643;SDS011;26931;43.498;-1.506;2023-06-14T02:42:07;18.17;;;7.70;;
34643;SDS011;26931;43.498;-1.506;2023-06-14T02:44:33;20.70;;;8.80;;
34643;SDS011;26931;43.498;-1.506;2023-06-14T02:47:01;22.15;;;9.23;;
34643;SDS011;26931;43.498;-1.506;2023-06-14T02:49:27;19.13;;;8.82;;
34643;SDS011;26931;43.498;-1.506;2023-06-14T02:51:53;18.98;;;8.70;;
34643;SDS011;26931;43.498;-1.506;2023-06-14T02:54:19;23.00;;;9.30;;
34643;SDS011;26931;43.498;-1.506;2023-06-14T02:56:45;19.70;;;8.70;;
34643;SDS011;26931;43.498;-1.506;2023-06-14T02:59:11;17.48;;;7.78;;
34643;SDS011;26931;43.498;-1.506;2023-06-14T03:01:39;19.08;;;8.32;;
34643;SDS011;26931;43.498;-1.506;2023-06-14T03:04:09;17.13;;;8.68;;
34643;SDS011;26931;43.498;-1.506;2023-06-14T03:06:35;17.70;;;8.73;;
34643;SDS011;26931;43.498;-1.506;2023-06-14T03:09:02;19.70;;;9.25;;
34643;SDS011;26931;43.498;-1.506;2023-06-14T03:11:34;21.00;;;8.02;;
34643;SDS011;26931;43.498;-1.506;2023-06-14T03:14:00;18.30;;;9.07;;
34643;SDS011;26931;43.498;-1.506;2023-06-14T03:16:29;23.40;;;9.38;;
34643;SDS011;26931;43.498;-1.506;2023-06-14T03:18:56;20.20;;;8.02;;
34643;SDS011;26931;43.498;-1.506;2023-06-14T03:21:22;26.02;;;9.23;;
34643;SDS011;26931;43.498;-1.506;2023-06-14T03:23:50;21.25;;;8.45;;
34643;SDS011;26931;43.498;-1.506;2023-06-14T03:26:16;17.73;;;8.18;;
34643;SDS011;26931;43.498;-1.506;2023-06-14T03:28:45;18.67;;;8.70;;
34643;SDS011;26931;43.498;-1.506;2023-06-14T03:31:12;19.52;;;9.10;;
34643;SDS011;26931;43.498;-1.506;2023-06-14T03:33:39;22.83;;;8.90;;
34643;SDS011;26931;43.498;-1.506;2023-06-14T03:36:05;22.23;;;8.60;;
34643;SDS011;26931;43.498;-1.506;2023-06-14T03:38:32;20.42;;;8.73;;
34643;SDS011;26931;43.498;-1.506;2023-06-14T03:40:58;21.30;;;7.75;;
34643;SDS011;26931;43.498;-1.506;2023-06-14T03:43:24;21.20;;;8.23;;
34643;SDS011;26931;43.498;-1.506;2023-06-14T03:45:50;18.30;;;7.55;;
34643;SDS011;26931;43.498;-1.506;2023-06-14T03:48:16;17.73;;;7.72;;
34643;SDS011;26931;43.498;-1.506;2023-06-14T03:50:43;19.98;;;7.95;;
34643;SDS011;26931;43.498;-1.506;2023-06-14T03:53:10;18.95;;;7.57;;
34643;SDS011;26931;43.498;-1.506;2023-06-14T03:55:36;22.00;;;8.57;;
34643;SDS011;26931;43.498;-1.506;2023-06-14T03:58:03;16.52;;;8.10;;
34643;SDS011;26931;43.498;-1.506;2023-06-14T04:00:29;24.40;;;8.60;;
34643;SDS011;26931;43.498;-1.506;2023-06-14T04:02:57;18.10;;;8.23;;
34643;SDS011;26931;43.498;-1.506;2023-06-14T04:05:23;22.35;;;9.70;;
34643;SDS011;26931;43.498;-1.506;2023-06-14T04:07:51;17.60;;;7.78;;
34643;SDS011;26931;43.498;-1.506;2023-06-14T04:10:20;20.20;;;9.02;;
34643;SDS011;26931;43.498;-1.506;2023-06-14T04:12:47;20.58;;;8.43;;
34643;SDS011;26931;43.498;-1.506;2023-06-14T04:15:14;22.35;;;8.50;;
34643;SDS011;26931;43.498;-1.506;2023-06-14T04:17:40;24.15;;;8.80;;
34643;SDS011;26931;43.498;-1.506;2023-06-14T04:20:06;20.75;;;7.40;;
34643;SDS011;26931;43.498;-1.506;2023-06-14T04:22:35;21.77;;;8.70;;
34643;SDS011;26931;43.498;-1.506;2023-06-14T04:25:01;23.88;;;9.18;;
34643;SDS011;26931;43.498;-1.506;2023-06-14T04:27:27;20.10;;;8.45;;
34643;SDS011;26931;43.498;-1.506;2023-06-14T04:29:56;22.92;;;8.18;;
34643;SDS011;26931;43.498;-1.506;2023-06-14T04:32:26;22.00;;;8.32;;
34643;SDS011;26931;43.498;-1.506;2023-06-14T04:34:53;23.17;;;8.90;;
34643;SDS011;26931;43.498;-1.506;2023-06-14T04:37:19;19.58;;;8.52;;
34643;SDS011;26931;43.498;-1.506;2023-06-14T04:39:46;26.40;;;8.77;;
34643;SDS011;26931;43.498;-1.506;2023-06-14T04:42:13;21.70;;;8.27;;
34643;SDS011;26931;43.498;-1.506;2023-06-14T04:44:42;23.10;;;8.23;;
34643;SDS011;26931;43.498;-1.506;2023-06-14T04:47:12;24.42;;;8.32;;
34643;SDS011;26931;43.498;-1.506;2023-06-14T04:49:39;22.23;;;8.18;;
34643;SDS011;26931;43.498;-1.506;2023-06-14T04:52:06;22.23;;;8.35;;
34643;SDS011;26931;43.498;-1.506;2023-06-14T04:54:35;24.58;;;8.63;;
34643;SDS011;26931;43.498;-1.506;2023-06-14T04:57:08;19.80;;;7.38;;
34643;SDS011;26931;43.498;-1.506;2023-06-14T04:59:40;20.25;;;7.60;;
34643;SDS011;26931;43.498;-1.506;2023-06-14T05:02:07;17.20;;;7.68;;
34643;SDS011;26931;43.498;-1.506;2023-06-14T05:04:33;25.23;;;8.93;;
34643;SDS011;26931;43.498;-1.506;2023-06-14T05:07:05;25.65;;;8.68;;
34643;SDS011;26931;43.498;-1.506;2023-06-14T05:09:35;21.95;;;8.05;;
34643;SDS011;26931;43.498;-1.506;2023-06-14T05:12:02;20.23;;;8.68;;
34643;SDS011;26931;43.498;-1.506;2023-06-14T05:14:28;23.42;;;8.38;;
34643;SDS011;26931;43.498;-1.506;2023-06-14T05:16:54;22.70;;;8.38;;
34643;SDS011;26931;43.498;-1.506;2023-06-14T05:19:20;26.08;;;9.10;;
34643;SDS011;26931;43.498;-1.506;2023-06-14T05:21:47;14.10;;;8.00;;
34643;SDS011;26931;43.498;-1.506;2023-06-14T05:24:13;20.92;;;7.63;;
34643;SDS011;26931;43.498;-1.506;2023-06-14T05:26:40;23.38;;;8.50;;
34643;SDS011;26931;43.498;-1.506;2023-06-14T05:29:06;16.63;;;8.02;;
34643;SDS011;26931;43.498;-1.506;2023-06-14T05:31:32;20.55;;;8.75;;
34643;SDS011;26931;43.498;-1.506;2023-06-14T05:33:58;23.88;;;8.68;;
34643;SDS011;26931;43.498;-1.506;2023-06-14T05:36:24;17.05;;;7.88;;
34643;SDS011;26931;43.498;-1.506;2023-06-14T05:38:53;25.00;;;8.10;;
34643;SDS011;26931;43.498;-1.506;2023-06-14T05:41:28;16.70;;;7.57;;
34643;SDS011;26931;43.498;-1.506;2023-06-14T05:43:55;15.77;;;7.28;;
34643;SDS011;26931;43.498;-1.506;2023-06-14T05:46:22;19.35;;;7.82;;
34643;SDS011;26931;43.498;-1.506;2023-06-14T05:48:53;23.27;;;7.82;;
34643;SDS011;26931;43.498;-1.506;2023-06-14T05:51:20;20.17;;;7.55;;
34643;SDS011;26931;43.498;-1.506;2023-06-14T05:53:47;21.42;;;7.45;;
34643;SDS011;26931;43.498;-1.506;2023-06-14T05:56:14;20.83;;;8.13;;
34643;SDS011;26931;43.498;-1.506;2023-06-14T05:58:42;23.38;;;8.52;;
34643;SDS011;26931;43.498;-1.506;2023-06-14T06:01:09;22.60;;;8.85;;
34643;SDS011;26931;43.498;-1.506;2023-06-14T06:03:35;23.05;;;8.30;;
34643;SDS011;26931;43.498;-1.506;2023-06-14T06:06:01;20.15;;;8.63;;
34643;SDS011;26931;43.498;-1.506;2023-06-14T06:08:28;21.15;;;8.77;;
34643;SDS011;26931;43.498;-1.506;2023-06-14T06:10:54;17.70;;;7.88;;
34643;SDS011;26931;43.498;-1.506;2023-06-14T06:13:20;17.75;;;8.23;;
34643;SDS011;26931;43.498;-1.506;2023-06-14T06:15:46;18.88;;;8.10;;
34643;SDS011;26931;43.498;-1.506;2023-06-14T06:18:12;20.98;;;7.90;;
34643;SDS011;26931;43.498;-1.506;2023-06-14T06:20:39;21.52;;;7.38;;
34643;SDS011;26931;43.498;-1.506;2023-06-14T06:23:05;22.02;;;7.28;;
34643;SDS011;26931;43.498;-1.506;2023-06-14T06:25:31;16.83;;;8.25;;
34643;SDS011;26931;43.498;-1.506;2023-06-14T06:27:57;18.13;;;7.22;;
34643;SDS011;26931;43.498;-1.506;2023-06-14T06:30:24;17.15;;;7.72;;
34643;SDS011;26931;43.498;-1.506;2023-06-14T06:32:50;17.95;;;7.10;;
34643;SDS011;26931;43.498;-1.506;2023-06-14T06:35:18;18.13;;;7.47;;
34643;SDS011;26931;43.498;-1.506;2023-06-14T06:37:44;17.10;;;6.95;;
34643;SDS011;26931;43.498;-1.506;2023-06-14T06:40:10;16.30;;;6.80;;
34643;SDS011;26931;43.498;-1.506;2023-06-14T06:42:37;15.73;;;6.82;;
34643;SDS011;26931;43.498;-1.506;2023-06-14T06:45:03;16.98;;;6.72;;
34643;SDS011;26931;43.498;-1.506;2023-06-14T06:47:30;23.25;;;7.47;;
34643;SDS011;26931;43.498;-1.506;2023-06-14T06:49:56;23.65;;;7.05;;
34643;SDS011;26931;43.498;-1.506;2023-06-14T06:52:22;16.90;;;7.05;;
34643;SDS011;26931;43.498;-1.506;2023-06-14T06:54:48;14.40;;;6.85;;
34643;SDS011;26931;43.498;-1.506;2023-06-14T06:57:15;14.27;;;6.97;;
34643;SDS011;26931;43.498;-1.506;2023-06-14T06:59:41;11.00;;;6.03;;
34643;SDS011;26931;43.498;-1.506;2023-06-14T07:02:07;16.58;;;7.18;;
34643;SDS011;26931;43.498;-1.506;2023-06-14T07:04:33;18.10;;;7.07;;
34643;SDS011;26931;43.498;-1.506;2023-06-14T07:07:00;16.30;;;7.43;;
34643;SDS011;26931;43.498;-1.506;2023-06-14T07:09:26;18.25;;;7.28;;
34643;SDS011;26931;43.498;-1.506;2023-06-14T07:11:52;15.98;;;7.45;;
34643;SDS011;26931;43.498;-1.506;2023-06-14T07:14:18;19.33;;;7.38;;
34643;SDS011;26931;43.498;-1.506;2023-06-14T07:16:44;15.82;;;7.03;;
34643;SDS011;26931;43.498;-1.506;2023-06-14T07:19:11;18.67;;;7.25;;
34643;SDS011;26931;43.498;-1.506;2023-06-14T07:21:37;19.40;;;6.10;;
34643;SDS011;26931;43.498;-1.506;2023-06-14T07:24:04;9.57;;;5.63;;
34643;SDS011;26931;43.498;-1.506;2023-06-14T07:26:33;20.25;;;6.80;;
34643;SDS011;26931;43.498;-1.506;2023-06-14T07:28:59;21.52;;;6.85;;
34643;SDS011;26931;43.498;-1.506;2023-06-14T07:31:25;16.40;;;7.07;;
34643;SDS011;26931;43.498;-1.506;2023-06-14T07:33:51;16.70;;;6.95;;
34643;SDS011;26931;43.498;-1.506;2023-06-14T07:36:18;19.73;;;7.00;;
34643;SDS011;26931;43.498;-1.506;2023-06-14T07:38:44;17.23;;;6.35;;
34643;SDS011;26931;43.498;-1.506;2023-06-14T07:41:10;14.40;;;6.22;;
34643;SDS011;26931;43.498;-1.506;2023-06-14T07:43:36;13.98;;;5.97;;
34643;SDS011;26931;43.498;-1.506;2023-06-14T07:46:02;14.57;;;5.70;;
34643;SDS011;26931;43.498;-1.506;2023-06-14T07:48:27;10.07;;;5.78;;
34643;SDS011;26931;43.498;-1.506;2023-06-14T07:50:53;12.25;;;5.85;;
34643;SDS011;26931;43.498;-1.506;2023-06-14T07:53:20;22.08;;;6.50;;
34643;SDS011;26931;43.498;-1.506;2023-06-14T07:55:45;14.85;;;6.28;;
34643;SDS011;26931;43.498;-1.506;2023-06-14T07:58:12;15.02;;;5.53;;
34643;SDS011;26931;43.498;-1.506;2023-06-14T08:00:38;14.48;;;5.03;;
34643;SDS011;26931;43.498;-1.506;2023-06-14T08:03:04;10.65;;;5.45;;
34643;SDS011;26931;43.498;-1.506;2023-06-14T08:05:29;17.83;;;6.45;;
34643;SDS011;26931;43.498;-1.506;2023-06-14T08:07:56;13.15;;;5.15;;
34643;SDS011;26931;43.498;-1.506;2023-06-14T08:10:22;11.70;;;5.78;;
34643;SDS011;26931;43.498;-1.506;2023-06-14T08:12:48;14.23;;;5.43;;
34643;SDS011;26931;43.498;-1.506;2023-06-14T08:15:15;10.77;;;5.40;;
34643;SDS011;26931;43.498;-1.506;2023-06-14T08:17:42;12.13;;;5.10;;
34643;SDS011;26931;43.498;-1.506;2023-06-14T08:20:08;15.63;;;6.03;;
34643;SDS011;26931;43.498;-1.506;2023-06-14T08:22:35;14.73;;;5.40;;
34643;SDS011;26931;43.498;-1.506;2023-06-14T08:25:02;14.50;;;6.15;;
34643;SDS011;26931;43.498;-1.506;2023-06-14T08:27:29;16.27;;;6.07;;
34643;SDS011;26931;43.498;-1.506;2023-06-14T08:29:54;12.15;;;5.30;;
34643;SDS011;26931;43.498;-1.506;2023-06-14T08:32:21;14.13;;;5.78;;
34643;SDS011;26931;43.498;-1.506;2023-06-14T08:34:47;13.50;;;6.28;;
34643;SDS011;26931;43.498;-1.506;2023-06-14T08:37:13;12.68;;;5.90;;
34643;SDS011;26931;43.498;-1.506;2023-06-14T08:39:38;15.68;;;6.10;;
34643;SDS011;26931;43.498;-1.506;2023-06-14T08:42:04;15.18;;;5.97;;
34643;SDS011;26931;43.498;-1.506;2023-06-14T08:44:32;13.43;;;5.03;;
34643;SDS011;26931;43.498;-1.506;2023-06-14T08:47:01;13.38;;;5.00;;
34643;SDS011;26931;43.498;-1.506;2023-06-14T08:49:28;13.13;;;5.45;;
34643;SDS011;26931;43.498;-1.506;2023-06-14T08:51:57;11.23;;;5.00;;
34643;SDS011;26931;43.498;-1.506;2023-06-14T08:54:28;12.45;;;5.00;;
34643;SDS011;26931;43.498;-1.506;2023-06-14T08:56:59;13.00;;;4.88;;
34643;SDS011;26931;43.498;-1.506;2023-06-14T08:59:25;10.55;;;5.38;;
34643;SDS011;26931;43.498;-1.506;2023-06-14T09:01:52;12.98;;;4.95;;
34643;SDS011;26931;43.498;-1.506;2023-06-14T09:04:23;13.13;;;5.10;;
34643;SDS011;26931;43.498;-1.506;2023-06-14T09:07:13;13.00;;;5.75;;
34643;SDS011;26931;43.498;-1.506;2023-06-14T09:09:40;15.70;;;7.22;;
34643;SDS011;26931;43.498;-1.506;2023-06-14T09:12:12;17.70;;;7.32;;
34643;SDS011;26931;43.498;-1.506;2023-06-14T09:14:38;14.55;;;6.38;;
34643;SDS011;26931;43.498;-1.506;2023-06-14T09:17:07;14.80;;;6.57;;
34643;SDS011;26931;43.498;-1.506;2023-06-14T09:19:33;14.45;;;6.88;;
34643;SDS011;26931;43.498;-1.506;2023-06-14T09:22:01;17.17;;;6.07;;
34643;SDS011;26931;43.498;-1.506;2023-06-14T09:24:29;11.98;;;5.88;;
34643;SDS011;26931;43.498;-1.506;2023-06-14T09:26:55;14.23;;;6.82;;
34643;SDS011;26931;43.498;-1.506;2023-06-14T09:29:22;12.95;;;6.18;;
34643;SDS011;26931;43.498;-1.506;2023-06-14T09:31:49;12.05;;;5.50;;
34643;SDS011;26931;43.498;-1.506;2023-06-14T09:34:15;12.07;;;5.57;;
34643;SDS011;26931;43.498;-1.506;2023-06-14T09:36:44;14.70;;;5.65;;
34643;SDS011;26931;43.498;-1.506;2023-06-14T09:39:10;13.85;;;6.18;;
34643;SDS011;26931;43.498;-1.506;2023-06-14T09:41:42;10.75;;;5.15;;
34643;SDS011;26931;43.498;-1.506;2023-06-14T09:44:08;13.65;;;6.13;;
34643;SDS011;26931;43.498;-1.506;2023-06-14T09:46:36;14.50;;;6.43;;
34643;SDS011;26931;43.498;-1.506;2023-06-14T09:49:03;12.95;;;6.07;;
34643;SDS011;26931;43.498;-1.506;2023-06-14T09:51:30;10.82;;;5.45;;
34643;SDS011;26931;43.498;-1.506;2023-06-14T09:53:59;12.82;;;5.25;;
34643;SDS011;26931;43.498;-1.506;2023-06-14T09:56:30;9.15;;;5.10;;
34643;SDS011;26931;43.498;-1.506;2023-06-14T09:59:05;14.75;;;5.32;;
34643;SDS011;26931;43.498;-1.506;2023-06-14T10:01:34;8.77;;;4.28;;
34643;SDS011;26931;43.498;-1.506;2023-06-14T10:04:07;9.52;;;4.82;;
34643;SDS011;26931;43.498;-1.506;2023-06-14T10:06:35;11.48;;;4.95;;
34643;SDS011;26931;43.498;-1.506;2023-06-14T10:09:03;9.45;;;4.50;;
34643;SDS011;26931;43.498;-1.506;2023-06-14T10:11:32;12.15;;;5.10;;
34643;SDS011;26931;43.498;-1.506;2023-06-14T10:14:00;13.00;;;4.85;;
34643;SDS011;26931;43.498;-1.506;2023-06-14T10:19:44;9.65;;;4.47;;
34643;SDS011;26931;43.498;-1.506;2023-06-14T10:22:25;12.25;;;4.60;;
34643;SDS011;26931;43.498;-1.506;2023-06-14T10:25:01;11.73;;;4.18;;
34643;SDS011;26931;43.498;-1.506;2023-06-14T10:27:27;9.13;;;4.75;;
34643;SDS011;26931;43.498;-1.506;2023-06-14T10:32:19;8.48;;;3.90;;
34643;SDS011;26931;43.498;-1.506;2023-06-14T10:34:49;11.43;;;4.47;;
34643;SDS011;26931;43.498;-1.506;2023-06-14T10:37:20;10.65;;;4.40;;
34643;SDS011;26931;43.498;-1.506;2023-06-14T10:39:46;8.90;;;3.72;;
34643;SDS011;26931;43.498;-1.506;2023-06-14T10:42:12;16.02;;;4.97;;
34643;SDS011;26931;43.498;-1.506;2023-06-14T10:44:39;9.73;;;4.00;;
34643;SDS011;26931;43.498;-1.506;2023-06-14T10:47:30;9.73;;;3.97;;
34643;SDS011;26931;43.498;-1.506;2023-06-14T10:50:04;8.93;;;4.32;;
34643;SDS011;26931;43.498;-1.506;2023-06-14T10:52:36;7.32;;;3.88;;
34643;SDS011;26931;43.498;-1.506;2023-06-14T10:55:08;8.68;;;4.30;;
34643;SDS011;26931;43.498;-1.506;2023-06-14T10:57:37;8.63;;;4.20;;
34643;SDS011;26931;43.498;-1.506;2023-06-14T11:00:05;8.98;;;4.13;;
34643;SDS011;26931;43.498;-1.506;2023-06-14T11:05:43;10.90;;;3.63;;
34643;SDS011;26931;43.498;-1.506;2023-06-14T11:11:00;14.27;;;4.38;;
34643;SDS011;26931;43.498;-1.506;2023-06-14T11:13:31;8.18;;;3.95;;
34643;SDS011;26931;43.498;-1.506;2023-06-14T11:15:58;9.45;;;4.25;;
34643;SDS011;26931;43.498;-1.506;2023-06-14T11:18:25;9.00;;;3.45;;
34643;SDS011;26931;43.498;-1.506;2023-06-14T11:20:52;9.93;;;3.83;;
34643;SDS011;26931;43.498;-1.506;2023-06-14T11:23:18;11.35;;;4.13;;
34643;SDS011;26931;43.498;-1.506;2023-06-14T11:25:51;7.88;;;3.67;;
34643;SDS011;26931;43.498;-1.506;2023-06-14T11:28:17;7.55;;;4.20;;
34643;SDS011;26931;43.498;-1.506;2023-06-14T11:30:45;11.50;;;5.57;;
34643;SDS011;26931;43.498;-1.506;2023-06-14T11:33:15;13.02;;;6.50;;
34643;SDS011;26931;43.498;-1.506;2023-06-14T11:35:43;10.00;;;5.03;;
34643;SDS011;26931;43.498;-1.506;2023-06-14T11:38:09;10.95;;;4.95;;
34643;SDS011;26931;43.498;-1.506;2023-06-14T11:40:37;9.45;;;4.55;;
34643;SDS011;26931;43.498;-1.506;2023-06-14T11:43:03;9.75;;;4.68;;
34643;SDS011;26931;43.498;-1.506;2023-06-14T11:45:30;7.13;;;4.13;;
34643;SDS011;26931;43.498;-1.506;2023-06-14T11:47:57;10.35;;;4.07;;
34643;SDS011;26931;43.498;-1.506;2023-06-14T11:50:24;8.52;;;4.10;;
34643;SDS011;26931;43.498;-1.506;2023-06-14T11:52:55;9.50;;;3.80;;
34643;SDS011;26931;43.498;-1.506;2023-06-14T11:55:34;11.80;;;3.63;;
34643;SDS011;26931;43.498;-1.506;2023-06-14T12:00:31;11.57;;;3.75;;
34643;SDS011;26931;43.498;-1.506;2023-06-14T12:02:57;12.05;;;3.88;;
34643;SDS011;26931;43.498;-1.506;2023-06-14T12:05:23;6.13;;;3.53;;
34643;SDS011;26931;43.498;-1.506;2023-06-14T12:07:57;8.68;;;3.80;;
34643;SDS011;26931;43.498;-1.506;2023-06-14T12:10:25;7.63;;;3.40;;
34643;SDS011;26931;43.498;-1.506;2023-06-14T12:12:56;10.55;;;3.58;;
34643;SDS011;26931;43.498;-1.506;2023-06-14T12:15:23;9.50;;;3.63;;
34643;SDS011;26931;43.498;-1.506;2023-06-14T12:17:50;8.63;;;3.72;;
34643;SDS011;26931;43.498;-1.506;2023-06-14T12:20:17;8.05;;;4.03;;
34643;SDS011;26931;43.498;-1.506;2023-06-14T12:22:50;13.63;;;4.13;;
34643;SDS011;26931;43.498;-1.506;2023-06-14T12:25:26;11.15;;;3.67;;
34643;SDS011;26931;43.498;-1.506;2023-06-14T12:27:56;10.80;;;4.20;;
34643;SDS011;26931;43.498;-1.506;2023-06-14T12:30:23;12.48;;;3.85;;
34643;SDS011;26931;43.498;-1.506;2023-06-14T12:32:48;16.85;;;4.95;;
34643;SDS011;26931;43.498;-1.506;2023-06-14T12:35:16;10.77;;;5.35;;
34643;SDS011;26931;43.498;-1.506;2023-06-14T12:37:43;14.02;;;6.72;;
34643;SDS011;26931;43.498;-1.506;2023-06-14T12:40:11;14.32;;;5.78;;
34643;SDS011;26931;43.498;-1.506;2023-06-14T12:42:37;13.23;;;4.80;;
34643;SDS011;26931;43.498;-1.506;2023-06-14T12:45:03;7.45;;;4.35;;
34643;SDS011;26931;43.498;-1.506;2023-06-14T12:47:29;9.38;;;4.40;;
34643;SDS011;26931;43.498;-1.506;2023-06-14T12:49:55;15.07;;;5.25;;
34643;SDS011;26931;43.498;-1.506;2023-06-14T12:52:21;11.35;;;4.95;;
34643;SDS011;26931;43.498;-1.506;2023-06-14T12:54:47;13.57;;;4.22;;
34643;SDS011;26931;43.498;-1.506;2023-06-14T12:57:13;9.65;;;4.55;;
34643;SDS011;26931;43.498;-1.506;2023-06-14T12:59:39;8.18;;;4.40;;
34643;SDS011;26931;43.498;-1.506;2023-06-14T13:02:17;13.40;;;5.05;;
34643;SDS011;26931;43.498;-1.506;2023-06-14T13:04:45;12.30;;;5.78;;
34643;SDS011;26931;43.498;-1.506;2023-06-14T13:07:11;10.40;;;5.38;;
34643;SDS011;26931;43.498;-1.506;2023-06-14T13:09:37;9.55;;;4.65;;
34643;SDS011;26931;43.498;-1.506;2023-06-14T13:12:03;8.82;;;4.15;;
34643;SDS011;26931;43.498;-1.506;2023-06-14T13:14:29;6.80;;;3.88;;
34643;SDS011;26931;43.498;-1.506;2023-06-14T13:16:55;7.35;;;4.03;;
34643;SDS011;26931;43.498;-1.506;2023-06-14T13:19:21;11.40;;;4.10;;
34643;SDS011;26931;43.498;-1.506;2023-06-14T13:21:47;11.13;;;3.90;;
34643;SDS011;26931;43.498;-1.506;2023-06-14T13:24:13;8.63;;;4.25;;
34643;SDS011;26931;43.498;-1.506;2023-06-14T13:26:39;9.95;;;4.13;;
34643;SDS011;26931;43.498;-1.506;2023-06-14T13:29:05;7.43;;;3.67;;
34643;SDS011;26931;43.498;-1.506;2023-06-14T13:31:31;10.88;;;4.13;;
34643;SDS011;26931;43.498;-1.506;2023-06-14T13:33:57;9.68;;;4.00;;
34643;SDS011;26931;43.498;-1.506;2023-06-14T13:36:22;9.73;;;4.25;;
34643;SDS011;26931;43.498;-1.506;2023-06-14T13:38:48;9.80;;;4.22;;
34643;SDS011;26931;43.498;-1.506;2023-06-14T13:41:14;7.13;;;3.95;;
34643;SDS011;26931;43.498;-1.506;2023-06-14T13:43:40;6.80;;;3.55;;
34643;SDS011;26931;43.498;-1.506;2023-06-14T13:46:05;4.53;;;3.70;;
34643;SDS011;26931;43.498;-1.506;2023-06-14T13:48:31;6.90;;;4.00;;
34643;SDS011;26931;43.498;-1.506;2023-06-14T13:50:59;7.00;;;3.80;;
34643;SDS011;26931;43.498;-1.506;2023-06-14T13:53:25;9.73;;;4.38;;
34643;SDS011;26931;43.498;-1.506;2023-06-14T13:55:50;9.90;;;4.18;;
34643;SDS011;26931;43.498;-1.506;2023-06-14T13:58:17;10.30;;;4.72;;
34643;SDS011;26931;43.498;-1.506;2023-06-14T14:00:44;8.07;;;3.97;;
34643;SDS011;26931;43.498;-1.506;2023-06-14T14:03:10;14.02;;;5.93;;
34643;SDS011;26931;43.498;-1.506;2023-06-14T14:05:36;9.07;;;4.13;;
34643;SDS011;26931;43.498;-1.506;2023-06-14T14:08:02;7.55;;;4.13;;
34643;SDS011;26931;43.498;-1.506;2023-06-14T14:10:29;10.55;;;5.22;;
34643;SDS011;26931;43.498;-1.506;2023-06-14T14:12:54;10.07;;;4.78;;
34643;SDS011;26931;43.498;-1.506;2023-06-14T14:15:21;7.90;;;4.00;;
34643;SDS011;26931;43.498;-1.506;2023-06-14T14:17:47;7.95;;;4.25;;
34643;SDS011;26931;43.498;-1.506;2023-06-14T14:20:13;6.70;;;4.22;;
34643;SDS011;26931;43.498;-1.506;2023-06-14T14:22:41;8.65;;;4.15;;
34643;SDS011;26931;43.498;-1.506;2023-06-14T14:25:07;9.07;;;4.80;;
34643;SDS011;26931;43.498;-1.506;2023-06-14T14:27:33;12.30;;;4.65;;
34643;SDS011;26931;43.498;-1.506;2023-06-14T14:29:59;9.70;;;3.92;;
34643;SDS011;26931;43.498;-1.506;2023-06-14T14:32:25;10.45;;;4.22;;
34643;SDS011;26931;43.498;-1.506;2023-06-14T14:34:51;6.03;;;4.20;;
34643;SDS011;26931;43.498;-1.506;2023-06-14T14:37:16;9.00;;;4.00;;
34643;SDS011;26931;43.498;-1.506;2023-06-14T14:39:44;10.75;;;4.00;;
34643;SDS011;26931;43.498;-1.506;2023-06-14T14:42:10;8.73;;;3.55;;
34643;SDS011;26931;43.498;-1.506;2023-06-14T14:44:37;9.98;;;4.05;;
34643;SDS011;26931;43.498;-1.506;2023-06-14T14:47:03;8.00;;;4.03;;